Time;durP1;ratioP1;P1;durP2;ratioP2;P2;SDS_P1;SDS_P2;PMS_P1;PMS_P2;Temp;Humidity;BMP_temperature;BMP_pressure;BME280_temperature;BME280_humidity;BME280_pressure;Samples;Min_cycle;Max_cycle;Signal;HPM_P1;HPM_P2
2022/01/22 00:00:27;;;;;;;15.83;9.53;;;;;;;;;;4966949;28;20196;-73
2022/01/22 00:02:53;;;;;;;17.23;10.90;;;;;;;;;;4978794;28;20234;-76
2022/01/22 00:05:20;;;;;;;18.13;9.90;;;;;;;;;;4966004;28;20653;-76
2022/01/22 00:07:46;;;;;;;17.90;10.07;;;;;;;;;;4963599;28;20275;-76
2022/01/22 00:10:14;;;;;;;15.07;9.37;;;;;;;;;;4968265;28;20264;-76
2022/01/22 00:15:21;;;;;;;14.20;9.63;;;;;;;;;;4976069;28;20223;-76
2022/01/22 00:17:48;;;;;;;14.10;8.77;;;;;;;;;;4976174;28;20230;-76
2022/01/22 00:20:15;;;;;;;12.77;9.00;;;;;;;;;;4973898;28;20190;-75
2022/01/22 00:22:42;;;;;;;17.57;10.57;;;;;;;;;;4971866;28;20181;-75
2022/01/22 00:25:09;;;;;;;13.33;9.27;;;;;;;;;;4956790;29;20584;-76
2022/01/22 00:27:36;;;;;;;12.93;9.30;;;;;;;;;;4956317;28;20610;-76
2022/01/22 00:30:04;;;;;;;16.87;10.43;;;;;;;;;;4966477;28;20182;-76
2022/01/22 00:32:30;;;;;;;13.37;8.93;;;;;;;;;;4984171;28;20180;-75
2022/01/22 00:34:56;;;;;;;19.97;10.77;;;;;;;;;;4983023;28;20184;-75
2022/01/22 00:37:22;;;;;;;14.80;9.80;;;;;;;;;;4981578;28;20307;-75
2022/01/22 00:39:49;;;;;;;15.37;9.97;;;;;;;;;;4985432;28;20669;-74
2022/01/22 00:42:16;;;;;;;15.93;9.70;;;;;;;;;;4972636;28;20180;-74
2022/01/22 00:44:43;;;;;;;14.57;9.73;;;;;;;;;;4994953;28;20303;-75
2022/01/22 00:47:09;;;;;;;16.77;10.20;;;;;;;;;;4981511;28;20199;-74
2022/01/22 00:49:38;;;;;;;14.33;10.00;;;;;;;;;;4957637;28;20220;-75
2022/01/22 00:52:05;;;;;;;15.00;9.60;;;;;;;;;;4974444;28;20209;-75
2022/01/22 00:54:32;;;;;;;14.70;9.37;;;;;;;;;;4961419;28;20203;-75
2022/01/22 00:56:58;;;;;;;16.90;10.57;;;;;;;;;;4953267;28;20251;-76
2022/01/22 00:59:24;;;;;;;17.13;11.13;;;;;;;;;;4964962;28;20188;-77
2022/01/22 01:01:51;;;;;;;17.97;11.20;;;;;;;;;;4973721;28;20177;-75
2022/01/22 01:04:17;;;;;;;17.50;10.17;;;;;;;;;;4973383;28;20212;-76
2022/01/22 01:06:43;;;;;;;22.10;12.90;;;;;;;;;;4977055;28;20204;-75
2022/01/22 01:09:10;;;;;;;16.30;11.83;;;;;;;;;;4972649;28;20328;-75
2022/01/22 01:11:43;;;;;;;20.30;11.87;;;;;;;;;;4960058;28;20643;-75
2022/01/22 01:14:15;;;;;;;18.97;11.80;;;;;;;;;;4974477;28;20271;-75
2022/01/22 01:35:40;;;;;;;16.87;11.27;;;;;;;;;;4982805;28;20554;-74
2022/01/22 01:38:08;;;;;;;20.47;10.67;;;;;;;;;;4969324;28;20184;-74
2022/01/22 01:40:38;;;;;;;15.63;10.20;;;;;;;;;;4975055;28;20549;-74
2022/01/22 01:43:10;;;;;;;15.17;10.07;;;;;;;;;;4999936;28;20681;-77
2022/01/22 01:45:36;;;;;;;13.07;9.37;;;;;;;;;;4991032;28;20215;-77
2022/01/22 01:48:10;;;;;;;14.33;9.90;;;;;;;;;;4972745;28;20195;-77
2022/01/22 01:50:38;;;;;;;13.00;9.67;;;;;;;;;;4977700;28;20176;-78
2022/01/22 01:53:19;;;;;;;15.60;9.67;;;;;;;;;;5005145;28;20189;-78
2022/01/22 01:56:01;;;;;;;11.20;8.83;;;;;;;;;;4973486;28;20234;-79
2022/01/22 01:58:31;;;;;;;14.23;9.47;;;;;;;;;;4990864;28;20187;-75
2022/01/22 02:01:01;;;;;;;13.77;9.37;;;;;;;;;;4981353;28;20212;-75
2022/01/22 02:03:28;;;;;;;14.30;9.17;;;;;;;;;;4974427;28;20664;-75
2022/01/22 02:06:04;;;;;;;15.27;8.90;;;;;;;;;;4972485;28;20219;-74
2022/01/22 02:08:37;;;;;;;18.40;10.33;;;;;;;;;;4965147;28;20212;-76
2022/01/22 02:11:12;;;;;;;11.53;8.87;;;;;;;;;;4968992;28;20589;-76
2022/01/22 02:25:13;;;;;;;14.47;8.50;;;;;;;;;;4975256;28;20211;-76
2022/01/22 02:27:39;;;;;;;14.07;8.87;;;;;;;;;;4972282;28;20197;-76
2022/01/22 02:30:08;;;;;;;13.23;8.23;;;;;;;;;;4973882;28;20184;-76
2022/01/22 02:33:13;;;;;;;10.83;7.97;;;;;;;;;;4969743;28;20192;-76
2022/01/22 02:38:44;;;;;;;12.83;7.97;;;;;;;;;;4973277;28;20284;-76
2022/01/22 02:41:16;;;;;;;12.07;7.60;;;;;;;;;;4977120;28;20215;-76
2022/01/22 02:43:42;;;;;;;13.13;8.80;;;;;;;;;;4956496;28;20197;-76
2022/01/22 02:46:10;;;;;;;12.90;8.47;;;;;;;;;;4972542;28;20231;-75
2022/01/22 02:48:36;;;;;;;9.73;7.40;;;;;;;;;;4970571;28;20259;-74
2022/01/22 02:51:03;;;;;;;11.80;7.70;;;;;;;;;;4976777;28;20652;-74
2022/01/22 02:53:29;;;;;;;12.27;8.27;;;;;;;;;;4971625;28;20223;-76
2022/01/22 02:55:56;;;;;;;13.00;8.77;;;;;;;;;;4980820;28;20205;-76
2022/01/22 02:58:24;;;;;;;11.70;8.47;;;;;;;;;;4965882;28;20672;-76
2022/01/22 03:00:51;;;;;;;15.60;8.20;;;;;;;;;;4956459;28;20342;-76
2022/01/22 03:03:19;;;;;;;12.43;9.13;;;;;;;;;;4975657;28;20315;-76
2022/01/22 03:05:46;;;;;;;12.53;8.57;;;;;;;;;;5004722;28;20212;-77
2022/01/22 03:08:14;;;;;;;12.53;8.43;;;;;;;;;;4945870;28;20287;-77
2022/01/22 03:10:44;;;;;;;13.20;8.20;;;;;;;;;;4985851;28;20200;-75
2022/01/22 03:15:57;;;;;;;11.60;8.43;;;;;;;;;;4958458;28;20258;-76
2022/01/22 03:29:17;;;;;;;11.40;8.27;;;;;;;;;;4967197;28;20640;-76
2022/01/22 03:31:43;;;;;;;12.33;8.17;;;;;;;;;;4967775;28;20211;-77
2022/01/22 03:34:12;;;;;;;10.80;8.60;;;;;;;;;;4963750;28;20204;-76
2022/01/22 03:36:38;;;;;;;11.50;8.27;;;;;;;;;;4973381;28;20215;-76
2022/01/22 03:39:08;;;;;;;11.13;7.80;;;;;;;;;;4942287;28;20263;-75
2022/01/22 03:41:35;;;;;;;11.50;8.17;;;;;;;;;;4989801;28;20187;-76
2022/01/22 03:44:04;;;;;;;11.20;7.77;;;;;;;;;;4970332;28;20212;-75
2022/01/22 03:46:30;;;;;;;10.93;7.97;;;;;;;;;;4972809;28;20219;-76
2022/01/22 03:48:57;;;;;;;10.50;7.80;;;;;;;;;;4955946;28;20576;-76
2022/01/22 03:51:24;;;;;;;10.97;7.53;;;;;;;;;;4959695;28;20191;-76
2022/01/22 03:53:51;;;;;;;12.80;8.23;;;;;;;;;;4958004;28;20209;-76
2022/01/22 03:56:17;;;;;;;10.33;8.20;;;;;;;;;;4959850;28;20228;-73
2022/01/22 03:59:02;;;;;;;10.47;8.27;;;;;;;;;;4973661;28;20181;-73
2022/01/22 04:02:13;;;;;;;11.23;8.43;;;;;;;;;;4984962;28;20189;-74
2022/01/22 04:04:44;;;;;;;11.67;7.83;;;;;;;;;;4959612;28;20266;-75
2022/01/22 04:10:04;;;;;;;12.90;8.30;;;;;;;;;;4991641;28;20231;-74
2022/01/22 04:15:08;;;;;;;11.97;8.23;;;;;;;;;;4985359;28;20184;-75
2022/01/22 04:25:35;;;;;;;11.40;7.47;;;;;;;;;;4969741;28;20212;-75
2022/01/22 04:28:01;;;;;;;12.27;7.73;;;;;;;;;;5003707;28;20179;-76
2022/01/22 04:30:28;;;;;;;10.17;7.30;;;;;;;;;;5006690;28;20185;-75
2022/01/22 04:32:54;;;;;;;11.80;7.70;;;;;;;;;;5004787;28;20176;-75
2022/01/22 04:35:24;;;;;;;11.43;7.67;;;;;;;;;;4972188;28;20648;-75
2022/01/22 04:37:50;;;;;;;9.87;7.23;;;;;;;;;;4976429;28;20718;-75
2022/01/22 04:40:18;;;;;;;10.27;7.40;;;;;;;;;;4964426;28;20188;-75
2022/01/22 04:42:44;;;;;;;10.57;7.47;;;;;;;;;;4939682;28;20254;-76
2022/01/22 04:45:27;;;;;;;11.63;7.10;;;;;;;;;;4968293;28;20247;-76
2022/01/22 04:56:11;;;;;;;11.97;8.10;;;;;;;;;;4974587;28;20701;-75
2022/01/22 04:58:37;;;;;;;11.50;7.90;;;;;;;;;;4969976;28;20224;-75
2022/01/22 05:01:03;;;;;;;11.37;7.80;;;;;;;;;;4967753;28;20192;-75
2022/01/22 05:03:55;;;;;;;11.57;7.30;;;;;;;;;;4989035;28;20635;-75
2022/01/22 05:06:41;;;;;;;10.80;7.57;;;;;;;;;;4996822;28;20228;-75
2022/01/22 05:09:37;;;;;;;11.10;6.97;;;;;;;;;;4981444;28;20255;-75
2022/01/22 05:12:04;;;;;;;11.73;7.13;;;;;;;;;;4976349;28;20192;-75
2022/01/22 05:14:32;;;;;;;10.27;7.40;;;;;;;;;;4987413;28;20204;-75
2022/01/22 05:17:00;;;;;;;11.43;7.20;;;;;;;;;;4973716;28;20197;-75
2022/01/22 05:21:57;;;;;;;10.23;6.83;;;;;;;;;;4955408;28;20181;-76
2022/01/22 05:24:28;;;;;;;10.53;7.10;;;;;;;;;;4978394;28;20183;-76
2022/01/22 05:38:20;;;;;;;13.63;8.03;;;;;;;;;;4960167;28;20204;-76
2022/01/22 05:40:46;;;;;;;11.60;7.40;;;;;;;;;;4977208;28;20180;-75
2022/01/22 05:43:12;;;;;;;13.53;8.53;;;;;;;;;;4944491;28;20271;-75
2022/01/22 05:45:39;;;;;;;15.40;9.13;;;;;;;;;;4976688;28;20200;-75
2022/01/22 05:48:06;;;;;;;12.43;7.80;;;;;;;;;;4964310;28;20651;-77
2022/01/22 05:50:37;;;;;;;10.87;7.13;;;;;;;;;;4970898;28;20650;-75
2022/01/22 05:53:14;;;;;;;9.17;7.50;;;;;;;;;;4975312;28;20548;-76
2022/01/22 05:59:36;;;;;;;11.47;7.40;;;;;;;;;;4971592;28;20181;-75
2022/01/22 06:01:30;;;;;;;11.40;6.93;;;;;;;;;;4964346;28;20218;-77
2022/01/22 06:04:07;;;;;;;14.53;7.17;;;;;;;;;;4977338;28;20180;-76
2022/01/22 06:06:33;;;;;;;12.80;7.00;;;;;;;;;;4973662;28;20267;-76
2022/01/22 06:09:07;;;;;;;10.83;7.47;;;;;;;;;;4982046;28;20188;-76
2022/01/22 06:11:40;;;;;;;8.53;7.00;;;;;;;;;;4991870;28;20191;-76
2022/01/22 06:14:07;;;;;;;14.27;8.43;;;;;;;;;;4987247;28;20280;-76
2022/01/22 06:16:39;;;;;;;12.47;7.47;;;;;;;;;;4975673;28;20239;-76
2022/01/22 06:19:26;;;;;;;11.53;7.83;;;;;;;;;;4978423;28;20204;-76
2022/01/22 06:21:53;;;;;;;11.57;7.77;;;;;;;;;;4947789;28;20189;-76
2022/01/22 06:24:19;;;;;;;12.03;7.90;;;;;;;;;;4970458;28;20180;-76
2022/01/22 06:26:46;;;;;;;12.87;7.27;;;;;;;;;;4958793;28;20216;-76
2022/01/22 06:29:12;;;;;;;11.50;7.43;;;;;;;;;;4967989;28;20191;-75
2022/01/22 06:31:38;;;;;;;13.80;8.17;;;;;;;;;;4984231;28;20304;-76
2022/01/22 06:34:06;;;;;;;12.50;8.10;;;;;;;;;;4976090;28;20180;-75
2022/01/22 06:36:33;;;;;;;11.23;7.73;;;;;;;;;;4972011;28;20295;-75
2022/01/22 06:39:14;;;;;;;11.83;7.73;;;;;;;;;;4953970;28;20212;-75
2022/01/22 06:42:03;;;;;;;12.13;7.70;;;;;;;;;;4958203;28;20180;-75
2022/01/22 06:44:48;;;;;;;13.20;7.60;;;;;;;;;;4968518;28;20218;-75
2022/01/22 06:47:33;;;;;;;11.47;8.13;;;;;;;;;;4961231;28;20215;-75
2022/01/22 06:49:59;;;;;;;11.80;7.77;;;;;;;;;;4968827;28;20552;-76
2022/01/22 06:52:45;;;;;;;10.53;7.03;;;;;;;;;;4962221;28;20173;-75
2022/01/22 06:55:27;;;;;;;11.30;7.43;;;;;;;;;;4952847;28;20445;-75
2022/01/22 06:57:53;;;;;;;11.33;7.43;;;;;;;;;;4962226;28;20270;-75
2022/01/22 07:00:26;;;;;;;11.13;7.73;;;;;;;;;;4991883;28;20279;-75
2022/01/22 07:03:08;;;;;;;11.43;7.50;;;;;;;;;;4953945;28;20185;-75
2022/01/22 07:05:35;;;;;;;12.07;7.30;;;;;;;;;;4971175;28;20250;-74
2022/01/22 07:08:08;;;;;;;11.87;7.67;;;;;;;;;;4975649;28;20185;-75
2022/01/22 07:10:37;;;;;;;11.73;7.20;;;;;;;;;;4968779;28;20209;-75
2022/01/22 07:13:04;;;;;;;14.27;7.80;;;;;;;;;;4966450;28;20173;-75
2022/01/22 07:15:30;;;;;;;13.70;7.60;;;;;;;;;;4978672;28;20240;-75
2022/01/22 07:18:04;;;;;;;12.50;7.77;;;;;;;;;;4956066;28;20203;-76
2022/01/22 07:20:34;;;;;;;12.83;7.77;;;;;;;;;;4966901;28;20192;-75
2022/01/22 07:23:14;;;;;;;12.17;7.50;;;;;;;;;;4967484;28;20176;-75
2022/01/22 07:25:44;;;;;;;11.27;6.87;;;;;;;;;;4983524;28;20270;-75
2022/01/22 07:28:29;;;;;;;10.27;7.07;;;;;;;;;;4966538;28;20188;-75
2022/01/22 07:30:56;;;;;;;11.00;7.43;;;;;;;;;;4964918;28;20188;-75
2022/01/22 07:33:23;;;;;;;12.33;7.23;;;;;;;;;;4973673;28;20184;-75
2022/01/22 07:35:52;;;;;;;11.10;7.40;;;;;;;;;;4974786;28;20185;-75
2022/01/22 07:38:18;;;;;;;11.60;7.50;;;;;;;;;;4956444;28;20188;-75
2022/01/22 07:40:45;;;;;;;11.43;7.60;;;;;;;;;;4962207;28;20255;-75
2022/01/22 07:43:26;;;;;;;10.90;6.10;;;;;;;;;;4992730;28;20198;-75
2022/01/22 07:46:27;;;;;;;9.67;6.67;;;;;;;;;;4969866;28;20228;-75
2022/01/22 07:48:56;;;;;;;12.60;7.13;;;;;;;;;;4970250;28;20195;-75
2022/01/22 07:51:25;;;;;;;11.10;7.20;;;;;;;;;;4985927;28;20185;-75
2022/01/22 07:53:52;;;;;;;9.93;6.80;;;;;;;;;;4966866;28;20372;-74
2022/01/22 07:56:23;;;;;;;10.47;6.97;;;;;;;;;;4958499;28;20612;-74
2022/01/22 07:58:49;;;;;;;9.70;7.13;;;;;;;;;;4969598;28;20216;-74
2022/01/22 08:01:16;;;;;;;9.37;6.77;;;;;;;;;;4992669;28;20228;-74
2022/01/22 08:04:02;;;;;;;7.73;6.23;;;;;;;;;;4968723;28;20632;-75
2022/01/22 08:07:04;;;;;;;10.00;6.30;;;;;;;;;;4968825;28;20203;-74
2022/01/22 08:09:50;;;;;;;8.40;5.57;;;;;;;;;;4969963;28;20239;-74
2022/01/22 08:12:28;;;;;;;7.77;6.13;;;;;;;;;;4968483;28;20184;-75
2022/01/22 08:14:59;;;;;;;8.63;6.03;;;;;;;;;;4961611;28;20283;-75
2022/01/22 08:17:26;;;;;;;7.90;6.40;;;;;;;;;;4958229;28;20215;-75
2022/01/22 08:19:53;;;;;;;9.07;5.93;;;;;;;;;;4956281;28;20176;-76
2022/01/22 08:22:38;;;;;;;7.87;5.73;;;;;;;;;;4983725;28;20644;-74
2022/01/22 08:25:23;;;;;;;10.30;6.00;;;;;;;;;;4961128;28;20564;-75
2022/01/22 08:30:37;;;;;;;9.20;5.40;;;;;;;;;;4975680;28;20243;-75
2022/01/22 08:38:18;;;;;;;9.30;6.30;;;;;;;;;;4973383;28;20192;-75
2022/01/22 08:40:45;;;;;;;7.90;6.20;;;;;;;;;;4959881;28;20660;-75
2022/01/22 08:43:11;;;;;;;10.13;5.93;;;;;;;;;;4966971;28;20217;-75
2022/01/22 08:45:37;;;;;;;10.07;6.23;;;;;;;;;;4984127;28;20480;-75
2022/01/22 08:48:04;;;;;;;9.70;5.90;;;;;;;;;;4974155;28;20191;-76
2022/01/22 08:50:32;;;;;;;7.73;6.10;;;;;;;;;;4979901;28;20207;-75
2022/01/22 08:52:58;;;;;;;9.07;6.00;;;;;;;;;;4970894;28;20176;-75
2022/01/22 08:55:24;;;;;;;7.70;6.07;;;;;;;;;;4946788;28;20241;-75
2022/01/22 08:57:51;;;;;;;10.07;7.03;;;;;;;;;;4986978;28;20692;-75
2022/01/22 09:00:37;;;;;;;10.53;6.80;;;;;;;;;;4968003;28;20188;-76
2022/01/22 09:03:09;;;;;;;9.33;7.13;;;;;;;;;;4966087;28;20192;-75
2022/01/22 09:05:55;;;;;;;14.73;7.20;;;;;;;;;;4972512;28;20243;-75
2022/01/22 09:08:27;;;;;;;9.27;6.20;;;;;;;;;;4964610;28;20644;-75
2022/01/22 09:11:27;;;;;;;13.40;7.20;;;;;;;;;;4990195;28;20609;-75
2022/01/22 09:14:05;;;;;;;12.13;7.37;;;;;;;;;;4990094;28;20524;-77
2022/01/22 09:16:42;;;;;;;14.00;8.77;;;;;;;;;;4968979;28;20215;-76
2022/01/22 09:19:10;;;;;;;10.77;7.40;;;;;;;;;;4963513;28;20206;-75
2022/01/22 09:21:38;;;;;;;8.90;7.10;;;;;;;;;;4972544;28;20262;-76
2022/01/22 09:24:05;;;;;;;9.43;6.87;;;;;;;;;;4965783;28;20187;-77
2022/01/22 09:26:31;;;;;;;9.27;6.57;;;;;;;;;;4968882;28;20599;-77
2022/01/22 09:29:00;;;;;;;9.97;7.33;;;;;;;;;;4966716;28;20182;-75
2022/01/22 09:31:27;;;;;;;9.33;6.73;;;;;;;;;;4973148;28;20196;-80
2022/01/22 09:33:58;;;;;;;10.27;7.30;;;;;;;;;;4965862;28;20173;-77
2022/01/22 09:36:43;;;;;;;12.87;7.93;;;;;;;;;;4972000;28;20584;-75
2022/01/22 09:39:17;;;;;;;8.83;6.63;;;;;;;;;;4981272;28;20176;-76
2022/01/22 09:42:04;;;;;;;10.67;7.80;;;;;;;;;;4967086;28;20251;-74
2022/01/22 09:44:33;;;;;;;11.23;7.77;;;;;;;;;;4963427;28;20177;-75
2022/01/22 09:47:20;;;;;;;12.03;8.50;;;;;;;;;;4973256;28;20560;-75
2022/01/22 09:50:19;;;;;;;12.80;8.87;;;;;;;;;;4954010;28;20192;-75
2022/01/22 09:52:56;;;;;;;13.30;9.63;;;;;;;;;;4968333;28;20191;-74
2022/01/22 09:55:43;;;;;;;13.27;8.70;;;;;;;;;;4963697;28;20200;-75
2022/01/22 09:58:27;;;;;;;10.23;7.20;;;;;;;;;;4969510;28;20185;-75
2022/01/22 10:01:18;;;;;;;9.97;7.63;;;;;;;;;;4972081;28;20293;-75
2022/01/22 10:03:45;;;;;;;10.77;7.20;;;;;;;;;;4966080;28;20683;-76
2022/01/22 10:06:32;;;;;;;10.23;7.40;;;;;;;;;;4959938;28;20228;-75
2022/01/22 10:09:26;;;;;;;11.13;7.60;;;;;;;;;;4961080;28;20177;-75
2022/01/22 10:12:12;;;;;;;10.73;7.23;;;;;;;;;;4967506;28;20244;-75
2022/01/22 10:15:09;;;;;;;13.33;7.70;;;;;;;;;;4971843;28;20619;-75
2022/01/22 10:17:49;;;;;;;11.73;8.30;;;;;;;;;;4968491;28;20580;-75
2022/01/22 10:20:21;;;;;;;15.47;8.83;;;;;;;;;;4972977;28;20207;-75
2022/01/22 10:23:02;;;;;;;15.70;10.13;;;;;;;;;;4966361;28;20674;-75
2022/01/22 10:25:31;;;;;;;16.63;9.50;;;;;;;;;;4970666;28;20347;-75
2022/01/22 10:28:03;;;;;;;15.60;10.20;;;;;;;;;;4966629;28;20208;-75
2022/01/22 10:30:41;;;;;;;18.63;10.47;;;;;;;;;;4968064;28;20192;-75
2022/01/22 10:33:22;;;;;;;15.50;11.03;;;;;;;;;;4961356;28;20178;-75
2022/01/22 10:36:18;;;;;;;18.03;11.47;;;;;;;;;;4958290;28;20224;-75
2022/01/22 10:39:06;;;;;;;25.87;15.73;;;;;;;;;;4965773;28;20219;-76
2022/01/22 10:41:32;;;;;;;19.20;12.67;;;;;;;;;;4967063;28;20185;-77
2022/01/22 10:43:59;;;;;;;20.17;12.53;;;;;;;;;;4954133;28;20192;-78
2022/01/22 10:46:44;;;;;;;19.77;12.20;;;;;;;;;;4974387;28;20208;-78
2022/01/22 10:49:12;;;;;;;18.53;12.10;;;;;;;;;;4970869;28;20184;-77
2022/01/22 10:51:46;;;;;;;18.07;12.50;;;;;;;;;;4963781;28;20546;-77
2022/01/22 10:54:12;;;;;;;19.60;12.40;;;;;;;;;;4967508;28;20286;-77
2022/01/22 10:56:41;;;;;;;17.77;12.63;;;;;;;;;;4969412;28;20591;-77
2022/01/22 10:59:11;;;;;;;17.33;12.53;;;;;;;;;;4962379;28;20189;-77
2022/01/22 11:01:44;;;;;;;15.90;12.13;;;;;;;;;;4953839;28;20215;-77
2022/01/22 11:04:11;;;;;;;19.20;13.33;;;;;;;;;;4962765;28;20177;-77
2022/01/22 11:06:38;;;;;;;19.13;12.00;;;;;;;;;;4953646;28;20217;-77
2022/01/22 11:09:05;;;;;;;18.70;12.07;;;;;;;;;;4972510;28;20176;-77
2022/01/22 11:11:36;;;;;;;17.53;12.37;;;;;;;;;;4966038;28;20184;-77
2022/01/22 11:14:05;;;;;;;18.43;11.90;;;;;;;;;;4943965;28;20584;-78
2022/01/22 11:16:33;;;;;;;18.30;12.87;;;;;;;;;;4942392;28;20216;-76
2022/01/22 11:19:02;;;;;;;18.53;13.23;;;;;;;;;;4972200;28;20562;-77
2022/01/22 11:21:29;;;;;;;22.43;13.43;;;;;;;;;;4971009;28;20203;-78
2022/01/22 11:23:55;;;;;;;17.67;11.87;;;;;;;;;;4951378;28;20195;-79
2022/01/22 11:26:26;;;;;;;18.10;12.33;;;;;;;;;;4975716;28;20217;-79
2022/01/22 11:28:53;;;;;;;18.47;12.33;;;;;;;;;;4972920;28;20553;-79
2022/01/22 11:31:21;;;;;;;20.87;12.90;;;;;;;;;;4974203;28;20211;-78
2022/01/22 11:33:48;;;;;;;18.70;12.47;;;;;;;;;;4953329;28;20193;-78
2022/01/22 11:36:41;;;;;;;19.23;12.67;;;;;;;;;;4940031;28;20217;-78
2022/01/22 11:39:07;;;;;;;18.87;12.77;;;;;;;;;;4942392;28;20676;-78
2022/01/22 11:41:33;;;;;;;25.10;14.63;;;;;;;;;;4963041;28;20205;-78
2022/01/22 11:44:07;;;;;;;19.27;12.90;;;;;;;;;;4960644;28;20208;-78
2022/01/22 11:46:51;;;;;;;20.57;13.27;;;;;;;;;;4979233;28;20208;-79
2022/01/22 11:49:22;;;;;;;18.97;12.83;;;;;;;;;;4961052;28;20185;-79
2022/01/22 11:51:52;;;;;;;20.07;12.90;;;;;;;;;;4957210;28;20189;-76
2022/01/22 11:54:19;;;;;;;20.47;12.90;;;;;;;;;;4978887;28;20693;-79
2022/01/22 11:56:47;;;;;;;23.57;12.67;;;;;;;;;;4940387;28;20201;-76
2022/01/22 11:59:21;;;;;;;20.93;12.43;;;;;;;;;;4979943;28;20208;-77
2022/01/22 12:01:50;;;;;;;17.20;11.30;;;;;;;;;;4967987;28;21308;-77
2022/01/22 12:04:35;;;;;;;16.73;11.60;;;;;;;;;;4966374;28;20188;-77
2022/01/22 12:07:01;;;;;;;17.70;12.17;;;;;;;;;;4970712;28;20216;-78
2022/01/22 12:09:31;;;;;;;16.63;13.13;;;;;;;;;;4974495;28;20711;-78
2022/01/22 12:15:02;;;;;;;19.50;13.70;;;;;;;;;;4972213;28;20184;-77
2022/01/22 12:18:11;;;;;;;19.23;13.37;;;;;;;;;;4971224;28;20228;-77
2022/01/22 12:23:03;;;;;;;20.70;12.50;;;;;;;;;;4970092;28;20279;-79
2022/01/22 12:25:29;;;;;;;21.73;13.63;;;;;;;;;;4972381;28;20216;-79
2022/01/22 12:27:56;;;;;;;21.57;13.87;;;;;;;;;;4972026;28;20196;-79
2022/01/22 12:30:34;;;;;;;18.30;12.57;;;;;;;;;;4970838;28;20612;-79
2022/01/22 12:33:01;;;;;;;18.03;11.93;;;;;;;;;;4973002;28;20192;-80
2022/01/22 12:35:35;;;;;;;18.50;13.53;;;;;;;;;;4969583;28;20192;-79
2022/01/22 12:38:32;;;;;;;17.03;13.17;;;;;;;;;;4974944;28;20302;-79
2022/01/22 12:44:05;;;;;;;25.43;15.53;;;;;;;;;;4974760;28;20219;-79
2022/01/22 12:46:31;;;;;;;22.03;15.53;;;;;;;;;;4969484;28;20355;-79
2022/01/22 12:48:58;;;;;;;20.17;13.67;;;;;;;;;;4970917;28;20188;-79
2022/01/22 12:51:27;;;;;;;19.93;13.60;;;;;;;;;;4974261;28;20181;-79
2022/01/22 12:53:54;;;;;;;20.80;14.70;;;;;;;;;;4985005;28;20180;-80
2022/01/22 12:56:48;;;;;;;20.07;13.83;;;;;;;;;;4980726;28;20231;-79
2022/01/22 12:59:10;;;;;;;18.97;13.97;;;;;;;;;;4972921;28;20196;-79
2022/01/22 13:01:38;;;;;;;16.63;11.73;;;;;;;;;;4973935;28;20181;-79
2022/01/22 13:04:08;;;;;;;17.83;12.20;;;;;;;;;;4988849;28;20217;-78
2022/01/22 13:06:53;;;;;;;16.00;10.83;;;;;;;;;;4987418;28;20201;-74
2022/01/22 13:09:43;;;;;;;15.97;11.83;;;;;;;;;;4960572;28;20181;-74
2022/01/22 13:12:11;;;;;;;18.37;12.53;;;;;;;;;;4972033;28;20203;-74
2022/01/22 13:14:37;;;;;;;16.53;11.87;;;;;;;;;;4989537;28;20186;-76
2022/01/22 13:17:03;;;;;;;15.70;11.40;;;;;;;;;;4970560;28;20287;-73
2022/01/22 13:19:30;;;;;;;18.67;11.67;;;;;;;;;;4971803;28;20207;-74
2022/01/22 13:22:00;;;;;;;17.10;11.53;;;;;;;;;;4968712;28;20646;-74
2022/01/22 13:24:28;;;;;;;18.77;11.43;;;;;;;;;;4970161;28;20184;-74
2022/01/22 13:27:09;;;;;;;15.80;12.17;;;;;;;;;;4967379;28;20209;-73
2022/01/22 13:29:38;;;;;;;13.50;9.73;;;;;;;;;;4956695;28;20181;-74
2022/01/22 13:32:43;;;;;;;9.33;7.00;;;;;;;;;;4970887;28;20648;-75
2022/01/22 13:49:29;;;;;;;6.53;5.57;;;;;;;;;;4959891;28;20180;-72
2022/01/22 13:51:56;;;;;;;6.30;5.67;;;;;;;;;;4964480;28;20179;-72
2022/01/22 13:54:27;;;;;;;6.90;5.90;;;;;;;;;;4960516;28;20528;-73
2022/01/22 13:56:57;;;;;;;7.77;5.63;;;;;;;;;;4970838;28;20299;-73
2022/01/22 13:59:25;;;;;;;7.27;5.80;;;;;;;;;;4970365;28;20275;-73
2022/01/22 14:02:10;;;;;;;8.17;6.17;;;;;;;;;;4976087;28;20185;-73
2022/01/22 14:04:40;;;;;;;7.13;5.73;;;;;;;;;;4951858;28;20555;-73
2022/01/22 14:07:28;;;;;;;7.57;5.40;;;;;;;;;;4954583;28;20200;-73
2022/01/22 14:09:54;;;;;;;6.93;5.20;;;;;;;;;;4962800;28;20207;-73
2022/01/22 14:12:20;;;;;;;7.23;5.97;;;;;;;;;;4973154;28;20216;-73
2022/01/22 14:14:58;;;;;;;6.30;5.47;;;;;;;;;;4968293;28;20201;-73
2022/01/22 14:17:26;;;;;;;7.63;6.33;;;;;;;;;;4964112;28;20204;-73
2022/01/22 14:20:04;;;;;;;9.33;6.90;;;;;;;;;;4973788;28;20188;-73
2022/01/22 14:22:50;;;;;;;8.93;6.60;;;;;;;;;;4970528;28;20192;-73
2022/01/22 14:25:17;;;;;;;8.87;6.40;;;;;;;;;;4983391;28;20212;-72
2022/01/22 14:27:43;;;;;;;6.53;5.83;;;;;;;;;;4968670;28;20199;-72
2022/01/22 14:30:09;;;;;;;8.43;6.03;;;;;;;;;;4970857;28;20173;-72
2022/01/22 14:32:36;;;;;;;7.57;6.17;;;;;;;;;;4969716;28;20639;-72
2022/01/22 14:35:18;;;;;;;8.07;6.37;;;;;;;;;;4970379;28;20190;-74
2022/01/22 14:37:46;;;;;;;7.17;6.20;;;;;;;;;;4969663;28;20725;-72
2022/01/22 14:45:57;;;;;;;8.57;5.70;;;;;;;;;;4969942;28;21371;-72
2022/01/22 14:48:25;;;;;;;6.00;5.37;;;;;;;;;;4984249;28;20211;-72
2022/01/22 14:50:51;;;;;;;11.23;5.93;;;;;;;;;;4969338;28;20551;-74
2022/01/22 14:53:18;;;;;;;7.63;6.07;;;;;;;;;;4969790;28;20189;-73
2022/01/22 14:55:58;;;;;;;7.27;5.73;;;;;;;;;;4970482;28;20176;-73
2022/01/22 14:58:25;;;;;;;6.87;5.80;;;;;;;;;;4969355;28;20189;-73
2022/01/22 15:00:51;;;;;;;7.67;5.80;;;;;;;;;;4965867;28;20570;-73
2022/01/22 15:03:17;;;;;;;7.00;5.73;;;;;;;;;;4968173;28;20730;-73
2022/01/22 15:05:44;;;;;;;6.80;5.77;;;;;;;;;;4967354;28;20212;-73
2022/01/22 15:08:10;;;;;;;6.80;5.33;;;;;;;;;;4949598;28;20187;-73
2022/01/22 15:10:37;;;;;;;7.33;5.50;;;;;;;;;;4966365;28;20176;-73
2022/01/22 15:13:03;;;;;;;7.43;5.97;;;;;;;;;;4967925;28;20189;-73
2022/01/22 15:15:41;;;;;;;8.33;6.33;;;;;;;;;;4967289;28;20191;-73
2022/01/22 15:18:12;;;;;;;8.77;6.07;;;;;;;;;;4971148;28;20259;-73
2022/01/22 15:20:40;;;;;;;8.70;6.93;;;;;;;;;;4971227;28;20247;-73
2022/01/22 15:23:06;;;;;;;9.90;7.30;;;;;;;;;;4971101;28;20173;-73
2022/01/22 15:25:32;;;;;;;9.77;7.87;;;;;;;;;;4970581;28;20303;-73
2022/01/22 15:27:58;;;;;;;10.07;8.30;;;;;;;;;;4969149;28;20201;-73
2022/01/22 15:30:31;;;;;;;9.93;7.70;;;;;;;;;;4967920;28;20232;-73
2022/01/22 15:33:03;;;;;;;10.83;8.10;;;;;;;;;;4965220;28;20181;-74
2022/01/22 15:35:29;;;;;;;12.63;8.83;;;;;;;;;;4962229;28;20191;-73
2022/01/22 15:37:57;;;;;;;12.83;8.87;;;;;;;;;;4965326;28;20213;-74
2022/01/22 15:40:25;;;;;;;10.90;7.67;;;;;;;;;;4970188;28;20208;-73
2022/01/22 15:42:52;;;;;;;11.70;8.60;;;;;;;;;;4969555;28;20184;-74
2022/01/22 15:45:21;;;;;;;11.20;8.30;;;;;;;;;;4970093;28;20702;-74
2022/01/22 15:47:47;;;;;;;9.80;7.73;;;;;;;;;;4958243;28;20662;-74
2022/01/22 15:50:13;;;;;;;10.47;6.87;;;;;;;;;;4970333;28;20203;-73
2022/01/22 15:52:39;;;;;;;10.40;7.80;;;;;;;;;;4972002;28;20659;-73
2022/01/22 15:55:08;;;;;;;19.97;11.00;;;;;;;;;;4970330;28;20523;-73
2022/01/22 15:57:35;;;;;;;38.43;21.17;;;;;;;;;;4959863;28;20227;-73
2022/01/22 16:00:02;;;;;;;25.63;16.00;;;;;;;;;;4970217;28;20187;-74
2022/01/22 16:02:29;;;;;;;16.37;11.53;;;;;;;;;;4955270;28;20204;-74
2022/01/22 16:04:55;;;;;;;13.67;10.50;;;;;;;;;;4959700;28;20212;-73
2022/01/22 16:07:23;;;;;;;14.77;9.77;;;;;;;;;;4955753;28;20204;-73
2022/01/22 16:09:50;;;;;;;11.03;8.57;;;;;;;;;;4971047;28;20180;-73
2022/01/22 16:12:20;;;;;;;13.23;8.87;;;;;;;;;;4970627;28;20188;-73
2022/01/22 16:14:46;;;;;;;12.10;7.07;;;;;;;;;;4966825;28;21390;-73
2022/01/22 16:17:16;;;;;;;9.20;7.10;;;;;;;;;;4969178;28;20231;-73
2022/01/22 16:19:43;;;;;;;10.73;7.20;;;;;;;;;;4970218;28;20208;-73
2022/01/22 16:22:09;;;;;;;11.20;6.90;;;;;;;;;;4968807;28;20199;-73
2022/01/22 16:24:35;;;;;;;13.00;7.57;;;;;;;;;;4963754;28;20185;-73
2022/01/22 16:27:03;;;;;;;12.93;8.03;;;;;;;;;;4968183;28;20547;-73
2022/01/22 16:29:29;;;;;;;12.87;7.77;;;;;;;;;;4968527;28;20615;-73
2022/01/22 16:31:55;;;;;;;11.00;7.17;;;;;;;;;;4967767;28;20181;-73
2022/01/22 16:34:22;;;;;;;12.80;8.47;;;;;;;;;;4969467;28;20209;-73
2022/01/22 16:36:48;;;;;;;11.20;8.60;;;;;;;;;;4967666;28;20239;-73
2022/01/22 16:39:14;;;;;;;13.30;9.30;;;;;;;;;;4984914;28;20203;-73
2022/01/22 16:41:41;;;;;;;14.07;9.73;;;;;;;;;;4985171;28;20191;-73
2022/01/22 16:52:39;;;;;;;10.30;7.73;;;;;;;;;;4970013;28;20189;-73
2022/01/22 16:55:06;;;;;;;9.50;7.67;;;;;;;;;;4968227;28;20192;-73
2022/01/22 16:57:35;;;;;;;10.30;8.47;;;;;;;;;;4972336;28;20204;-75
2022/01/22 17:00:06;;;;;;;9.87;7.50;;;;;;;;;;4971226;28;21079;-73
2022/01/22 17:02:37;;;;;;;9.77;8.23;;;;;;;;;;4973759;28;20231;-73
2022/01/22 17:05:10;;;;;;;8.70;7.37;;;;;;;;;;4970939;28;20786;-73
2022/01/22 17:08:02;;;;;;;9.70;7.30;;;;;;;;;;4973416;28;20207;-73